Time;durP1;ratioP1;P1;durP2;ratioP2;P2;SDS_P1;SDS_P2;PMS_P1;PMS_P2;Temp;Humidity;BMP_temperature;BMP_pressure;BME280_temperature;BME280_humidity;BME280_pressure;Samples;Min_cycle;Max_cycle;Signal;HPM_P1;HPM_P2
2022/09/09 00:02:28;;;;;;;10.40;6.35;;;15.50;99.90;;;;;;4997836;28;20110;-86
2022/09/09 00:05:14;;;;;;;11.35;6.38;;;15.30;99.90;;;;;;5014675;28;20049;-86
2022/09/09 00:07:51;;;;;;;9.85;8.13;;;15.20;99.90;;;;;;5029998;28;20136;-86
2022/09/09 00:10:26;;;;;;;10.40;6.22;;;15.10;99.90;;;;;;5013095;28;20044;-86
2022/09/09 00:13:18;;;;;;;9.18;6.20;;;15.10;99.90;;;;;;5030236;28;20109;-86
2022/09/09 00:15:59;;;;;;;9.40;6.57;;;15.10;99.90;;;;;;5010722;28;20052;-86
2022/09/09 00:18:47;;;;;;;10.38;7.13;;;15.00;99.90;;;;;;5030043;28;20053;-86
2022/09/09 00:21:17;;;;;;;10.38;7.40;;;15.00;99.90;;;;;;5029897;28;20560;-86
2022/09/09 00:23:51;;;;;;;10.52;6.75;;;15.00;99.90;;;;;;5013656;28;20085;-86
2022/09/09 00:26:38;;;;;;;13.95;7.38;;;15.00;99.90;;;;;;5029804;28;20205;-86
2022/09/09 00:29:41;;;;;;;11.05;8.23;;;15.00;99.90;;;;;;5030115;28;20044;-85
2022/09/09 00:32:16;;;;;;;12.18;5.80;;;15.10;99.90;;;;;;5029092;28;20111;-86
2022/09/09 00:35:11;;;;;;;15.15;7.88;;;14.90;99.90;;;;;;5029748;28;20052;-86
2022/09/09 00:37:40;;;;;;;14.48;8.30;;;14.90;99.90;;;;;;5029641;28;20080;-86
2022/09/09 00:40:22;;;;;;;12.50;8.27;;;13.90;99.90;;;;;;4997164;28;20469;-86
2022/09/09 00:43:13;;;;;;;11.65;8.02;;;15.30;99.90;;;;;;5013467;28;20049;-85
2022/09/09 00:45:58;;;;;;;13.23;8.18;;;14.80;99.90;;;;;;5013091;28;20085;-86
2022/09/09 00:48:43;;;;;;;11.77;7.97;;;14.80;99.90;;;;;;5028817;28;20102;-86
2022/09/09 00:51:37;;;;;;;13.40;8.18;;;14.80;99.90;;;;;;5029379;28;20076;-86
2022/09/09 00:54:18;;;;;;;10.63;8.00;;;14.70;99.90;;;;;;5028927;28;20049;-85
2022/09/09 00:57:23;;;;;;;13.27;8.73;;;14.80;99.90;;;;;;5028754;28;20041;-86
2022/09/09 01:00:20;;;;;;;11.60;7.95;;;14.70;99.90;;;;;;5026312;28;20060;-86
2022/09/09 01:02:55;;;;;;;13.68;7.53;;;14.70;99.90;;;;;;5012869;28;20091;-86
2022/09/09 01:05:33;;;;;;;11.45;6.50;;;14.70;99.90;;;;;;5028948;28;20435;-86
2022/09/09 01:08:02;;;;;;;11.65;6.72;;;14.70;99.90;;;;;;5013045;28;20447;-86
2022/09/09 01:10:53;;;;;;;8.60;5.32;;;14.70;99.90;;;;;;5028245;28;20052;-85
2022/09/09 01:13:33;;;;;;;6.22;5.18;;;14.70;99.90;;;;;;5029103;28;20045;-86
2022/09/09 01:16:02;;;;;;;5.75;5.15;;;15.60;99.90;;;;;;5028559;28;20044;-85
2022/09/09 01:18:34;;;;;;;8.23;5.60;;;14.70;99.90;;;;;;5012051;28;20061;-86
2022/09/09 01:21:37;;;;;;;8.32;5.20;;;14.70;99.90;;;;;;5012691;28;20037;-86
2022/09/09 01:24:20;;;;;;;8.07;5.13;;;14.70;99.90;;;;;;5028870;28;20056;-86
2022/09/09 01:26:50;;;;;;;6.55;5.35;;;14.60;99.90;;;;;;5011663;28;20078;-86
2022/09/09 01:29:18;;;;;;;8.65;5.53;;;14.60;99.90;;;;;;5011913;28;20496;-86
2022/09/09 01:31:59;;;;;;;9.63;5.63;;;15.00;99.90;;;;;;5011523;28;20055;-86
2022/09/09 01:34:38;;;;;;;7.07;6.25;;;14.80;99.90;;;;;;5012126;28;20061;-86
2022/09/09 01:37:07;;;;;;;9.07;5.60;;;14.60;99.90;;;;;;5028732;28;20045;-86
2022/09/09 01:39:35;;;;;;;7.85;5.50;;;13.80;99.90;;;;;;5028344;28;20065;-86
2022/09/09 01:42:03;;;;;;;9.57;5.22;;;14.60;99.90;;;;;;5028674;28;20037;-86
2022/09/09 01:44:30;;;;;;;8.25;5.20;;;14.50;99.90;;;;;;5012092;28;20048;-86
2022/09/09 01:46:55;;;;;;;6.75;5.20;;;15.10;99.90;;;;;;5028428;28;20048;-86
2022/09/09 01:49:21;;;;;;;8.57;5.25;;;14.50;99.90;;;;;;5012370;28;20049;-86
2022/09/09 01:51:51;;;;;;;7.20;5.28;;;14.90;99.90;;;;;;5028588;28;20048;-86
2022/09/09 01:54:19;;;;;;;8.57;5.35;;;14.50;99.90;;;;;;5028827;28;20041;-85
2022/09/09 01:56:58;;;;;;;9.43;5.13;;;14.50;99.90;;;;;;5012021;28;20126;-86
2022/09/09 01:59:58;;;;;;;8.52;4.72;;;14.90;99.90;;;;;;5028455;28;20049;-86
2022/09/09 02:02:29;;;;;;;11.25;5.47;;;14.50;99.90;;;;;;5022062;28;20044;-86
2022/09/09 02:05:11;;;;;;;8.40;6.00;;;14.50;99.90;;;;;;5028383;28;20504;-86
2022/09/09 02:07:41;;;;;;;7.90;6.22;;;14.50;99.90;;;;;;5028107;28;20037;-86
2022/09/09 02:10:32;;;;;;;7.63;5.47;;;14.50;99.90;;;;;;5010767;28;20075;-86
2022/09/09 02:13:07;;;;;;;9.35;6.43;;;14.60;99.90;;;;;;5028647;28;20118;-86
2022/09/09 02:15:34;;;;;;;8.70;6.00;;;14.70;99.90;;;;;;5028191;28;20037;-86
2022/09/09 02:18:06;;;;;;;13.73;7.88;;;14.90;99.90;;;;;;5010768;28;20461;-86
2022/09/09 02:20:33;;;;;;;10.35;7.07;;;14.60;99.90;;;;;;5012292;28;20492;-86
2022/09/09 02:23:00;;;;;;;10.15;6.40;;;15.80;99.90;;;;;;5011239;28;20048;-86
2022/09/09 02:25:29;;;;;;;15.02;8.75;;;14.60;99.90;;;;;;5027901;28;20041;-86
2022/09/09 02:27:58;;;;;;;12.27;7.57;;;14.70;99.90;;;;;;5028132;28;20392;-86
2022/09/09 02:30:23;;;;;;;11.95;7.93;;;14.70;99.90;;;;;;5011465;28;20056;-86
2022/09/09 02:32:52;;;;;;;14.95;7.75;;;14.70;99.90;;;;;;5012081;28;20041;-86
2022/09/09 02:35:22;;;;;;;14.48;9.02;;;14.70;99.90;;;;;;5027141;28;20056;-85
2022/09/09 02:37:51;;;;;;;11.93;8.15;;;14.70;99.90;;;;;;5031503;28;20041;-84
2022/09/09 02:40:17;;;;;;;10.43;8.55;;;15.10;99.90;;;;;;5031308;28;20554;-86
2022/09/09 02:42:48;;;;;;;17.17;8.98;;;14.70;99.90;;;;;;5032204;28;20044;-85
2022/09/09 02:45:19;;;;;;;11.45;8.02;;;14.60;99.90;;;;;;5015714;28;20143;-86
2022/09/09 02:48:06;;;;;;;15.45;8.25;;;14.70;99.90;;;;;;5031580;28;20041;-86
2022/09/09 02:50:42;;;;;;;16.13;9.13;;;14.60;99.90;;;;;;5032222;28;20407;-86
2022/09/09 02:53:22;;;;;;;12.95;9.48;;;14.70;99.90;;;;;;5031437;28;20049;-86
2022/09/09 02:55:55;;;;;;;13.02;9.00;;;15.40;99.90;;;;;;5032536;28;20048;-86
2022/09/09 02:58:21;;;;;;;9.55;8.60;;;14.70;99.90;;;;;;5033246;28;20083;-86
2022/09/09 03:00:49;;;;;;;11.40;8.30;;;14.70;99.90;;;;;;5015665;28;20412;-86
2022/09/09 03:03:17;;;;;;;9.45;7.85;;;14.70;99.90;;;;;;5031913;28;20291;-86
2022/09/09 03:05:43;;;;;;;12.68;7.78;;;14.70;99.90;;;;;;5031118;28;20045;-86
2022/09/09 03:08:10;;;;;;;14.85;8.10;;;14.70;99.90;;;;;;5031534;28;20085;-86
2022/09/09 03:10:36;;;;;;;9.73;7.82;;;14.70;99.90;;;;;;5031852;28;20036;-86
2022/09/09 03:13:05;;;;;;;13.18;8.18;;;16.10;99.90;;;;;;5031338;28;20096;-86
2022/09/09 03:15:32;;;;;;;11.88;8.18;;;14.80;99.90;;;;;;5031204;28;20041;-86
2022/09/09 03:17:58;;;;;;;16.15;8.02;;;15.50;99.90;;;;;;5030701;28;20167;-86
2022/09/09 03:20:28;;;;;;;11.57;7.85;;;14.80;99.90;;;;;;5014745;28;20049;-85
2022/09/09 03:22:55;;;;;;;10.27;7.20;;;15.30;99.90;;;;;;5030333;28;20049;-86
2022/09/09 03:25:25;;;;;;;11.15;7.85;;;14.80;99.90;;;;;;5031569;28;20393;-86
2022/09/09 03:27:54;;;;;;;11.32;7.30;;;14.90;99.90;;;;;;5030745;28;20076;-86
2022/09/09 03:30:21;;;;;;;10.98;6.85;;;14.80;99.90;;;;;;5015066;28;20048;-86
2022/09/09 03:32:47;;;;;;;11.88;6.63;;;14.80;99.90;;;;;;5031131;28;20049;-87
2022/09/09 03:35:13;;;;;;;8.38;6.47;;;15.50;99.90;;;;;;5013747;28;20048;-87
2022/09/09 03:37:38;;;;;;;10.20;6.47;;;14.80;99.90;;;;;;4981768;28;20048;-87
2022/09/09 03:40:04;;;;;;;12.20;6.25;;;14.90;99.90;;;;;;5013634;28;20051;-86
2022/09/09 03:42:31;;;;;;;7.60;5.85;;;14.80;99.90;;;;;;5014844;28;20085;-86
2022/09/09 03:44:57;;;;;;;12.95;6.10;;;15.00;99.90;;;;;;5014179;28;20055;-87
2022/09/09 03:47:23;;;;;;;17.15;6.00;;;15.10;99.90;;;;;;4997786;28;20082;-86
2022/09/09 03:49:49;;;;;;;8.73;5.82;;;14.80;99.90;;;;;;5030390;28;20123;-87
2022/09/09 03:52:15;;;;;;;8.50;4.97;;;14.80;99.90;;;;;;5013512;28;20040;-86
2022/09/09 03:54:42;;;;;;;9.93;5.07;;;14.80;99.90;;;;;;5031122;28;20060;-86
2022/09/09 03:57:09;;;;;;;5.53;4.22;;;15.50;99.90;;;;;;5029591;28;20041;-85
2022/09/09 03:59:35;;;;;;;5.97;4.22;;;14.80;99.90;;;;;;5030714;28;20041;-85
2022/09/09 04:02:02;;;;;;;7.40;3.60;;;14.90;99.90;;;;;;5014060;28;20558;-85
2022/09/09 04:04:27;;;;;;;4.05;3.03;;;14.90;99.90;;;;;;5013786;28;20041;-86
2022/09/09 04:06:53;;;;;;;4.95;3.20;;;14.90;99.90;;;;;;5013704;28;20124;-86
2022/09/09 04:09:19;;;;;;;6.93;2.88;;;14.90;99.90;;;;;;4997563;28;20417;-86
2022/09/09 04:11:45;;;;;;;4.28;2.85;;;15.00;99.90;;;;;;5014046;28;20388;-86
2022/09/09 04:14:12;;;;;;;6.13;2.50;;;15.60;99.90;;;;;;5029795;28;20400;-86
2022/09/09 04:16:38;;;;;;;5.35;2.33;;;14.90;99.90;;;;;;5013736;28;20423;-87
2022/09/09 04:19:04;;;;;;;7.32;2.35;;;15.00;99.90;;;;;;5013386;28;20040;-86
2022/09/09 04:21:30;;;;;;;5.97;2.72;;;15.10;99.90;;;;;;5013849;28;20040;-85
2022/09/09 04:23:56;;;;;;;5.15;2.08;;;15.40;99.90;;;;;;5013487;28;20083;-86
2022/09/09 04:26:22;;;;;;;7.15;2.50;;;15.10;99.90;;;;;;5029544;28;20076;-86
2022/09/09 04:28:48;;;;;;;3.88;1.98;;;15.20;99.90;;;;;;4997899;28;20143;-89
2022/09/09 04:31:23;;;;;;;7.05;2.53;;;15.20;99.90;;;;;;5013271;28;20055;-89
2022/09/09 04:33:49;;;;;;;7.18;2.15;;;15.10;99.90;;;;;;5014163;28;20136;-89
2022/09/09 04:36:17;;;;;;;4.10;1.80;;;15.20;99.90;;;;;;5030497;28;20098;-89
2022/09/09 04:38:44;;;;;;;4.15;1.92;;;15.20;99.90;;;;;;5030794;28;20053;-88
2022/09/09 04:41:11;;;;;;;5.82;2.45;;;15.20;99.90;;;;;;5014108;28;20456;-88
2022/09/09 04:43:37;;;;;;;8.60;2.13;;;15.40;99.90;;;;;;5012640;28;20481;-89
2022/09/09 04:46:03;;;;;;;6.95;1.95;;;15.20;99.90;;;;;;5014038;28;20134;-86
2022/09/09 04:48:30;;;;;;;6.15;2.25;;;16.30;99.90;;;;;;5028670;28;20080;-86
2022/09/09 04:51:05;;;;;;;6.00;2.17;;;15.20;99.90;;;;;;5013721;28;20049;-85
2022/09/09 04:53:33;;;;;;;7.28;2.58;;;15.20;99.90;;;;;;5012766;28;20494;-84
2022/09/09 04:56:07;;;;;;;10.10;2.30;;;15.20;99.90;;;;;;5013641;28;20466;-85
2022/09/09 04:58:33;;;;;;;5.32;2.47;;;15.20;99.90;;;;;;5028465;28;20044;-85
2022/09/09 05:01:28;;;;;;;7.43;2.90;;;16.00;99.90;;;;;;5012141;28;20048;-90
2022/09/09 05:03:53;;;;;;;8.20;2.95;;;15.10;99.90;;;;;;5002596;28;20060;-83
2022/09/09 05:06:21;;;;;;;6.70;2.90;;;15.20;99.90;;;;;;5012499;28;20041;-88
2022/09/09 05:08:48;;;;;;;5.68;2.95;;;15.10;99.90;;;;;;5029367;28;20052;-85
2022/09/09 05:11:27;;;;;;;7.78;3.78;;;15.10;99.90;;;;;;5013032;28;20049;-86
2022/09/09 05:13:54;;;;;;;4.57;3.40;;;15.10;99.90;;;;;;5015136;28;20044;-86
2022/09/09 05:16:20;;;;;;;6.93;4.82;;;15.30;99.90;;;;;;5031165;28;20080;-84
2022/09/09 05:18:46;;;;;;;8.90;3.60;;;15.10;99.90;;;;;;5028370;28;20041;-84
2022/09/09 05:21:14;;;;;;;7.75;3.95;;;15.40;99.90;;;;;;5012775;28;20369;-82
2022/09/09 05:23:40;;;;;;;7.18;4.18;;;15.00;99.90;;;;;;5029247;28;20045;-84
2022/09/09 05:26:08;;;;;;;8.27;5.03;;;15.00;99.90;;;;;;5013048;28;20370;-83
2022/09/09 05:28:37;;;;;;;7.32;5.03;;;15.00;99.90;;;;;;4996446;28;20071;-84
2022/09/09 05:31:09;;;;;;;8.38;4.97;;;15.00;99.90;;;;;;5011811;28;20149;-84
2022/09/09 05:33:35;;;;;;;10.55;5.40;;;15.00;99.90;;;;;;5028452;28;20083;-84
2022/09/09 05:36:04;;;;;;;9.25;5.32;;;15.00;99.90;;;;;;5028240;28;20480;-84
2022/09/09 05:38:32;;;;;;;11.32;5.63;;;15.00;99.90;;;;;;5029001;28;20044;-84
2022/09/09 05:40:57;;;;;;;10.05;6.13;;;15.50;99.90;;;;;;5029035;28;20045;-89
2022/09/09 05:43:25;;;;;;;11.02;5.43;;;15.00;99.90;;;;;;5012017;28;20059;-87
2022/09/09 05:46:11;;;;;;;11.10;5.55;;;15.00;99.90;;;;;;5028724;28;20090;-86
2022/09/09 05:48:38;;;;;;;12.13;6.20;;;15.00;99.90;;;;;;5027851;28;20516;-84
2022/09/09 05:51:06;;;;;;;8.43;6.35;;;15.00;99.90;;;;;;5028760;28;20500;-89
2022/09/09 05:53:34;;;;;;;11.18;6.70;;;14.90;99.90;;;;;;5012472;28;20040;-89
2022/09/09 05:56:19;;;;;;;11.75;6.95;;;14.90;99.90;;;;;;5029480;28;20072;-87
2022/09/09 05:58:49;;;;;;;10.65;6.75;;;15.00;99.90;;;;;;5012837;28;20132;-90
2022/09/09 06:01:20;;;;;;;11.63;7.47;;;15.00;99.90;;;;;;5013088;28;20137;-90
2022/09/09 06:03:47;;;;;;;12.65;7.07;;;15.00;99.90;;;;;;5029176;28;20045;-87
2022/09/09 06:06:17;;;;;;;14.65;7.50;;;16.00;99.90;;;;;;5028125;28;20045;-86
2022/09/09 06:08:44;;;;;;;19.25;7.13;;;15.00;99.90;;;;;;5029238;28;20049;-87
2022/09/09 06:11:18;;;;;;;10.52;6.68;;;15.20;99.90;;;;;;5012344;28;20048;-88
2022/09/09 06:13:44;;;;;;;11.85;6.80;;;15.00;99.90;;;;;;5011581;28;20044;-88
2022/09/09 06:16:11;;;;;;;11.02;7.05;;;15.00;99.90;;;;;;4995542;28;20126;-87
2022/09/09 06:18:38;;;;;;;11.75;7.03;;;15.30;99.90;;;;;;5028249;28;20949;-87
2022/09/09 06:21:06;;;;;;;10.18;7.22;;;15.10;99.90;;;;;;5028408;28;20037;-87
2022/09/09 06:23:36;;;;;;;11.48;7.35;;;15.10;99.90;;;;;;5011617;28;20098;-88
2022/09/09 06:26:07;;;;;;;15.45;8.13;;;15.10;99.90;;;;;;5012674;28;20079;-89
2022/09/09 06:28:34;;;;;;;12.15;6.95;;;15.10;99.90;;;;;;5028626;28;20080;-88
2022/09/09 06:31:08;;;;;;;10.60;7.35;;;15.10;99.90;;;;;;5011038;28;20033;-88
2022/09/09 06:33:40;;;;;;;10.10;7.15;;;15.10;99.90;;;;;;5028376;28;20497;-89
2022/09/09 06:36:12;;;;;;;7.50;6.50;;;15.50;99.90;;;;;;5028348;28;20506;-88
2022/09/09 06:38:38;;;;;;;9.30;6.28;;;16.10;99.90;;;;;;5028497;28;20037;-88
2022/09/09 06:41:05;;;;;;;9.68;6.57;;;15.20;99.90;;;;;;4996008;28;20049;-88
2022/09/09 06:43:32;;;;;;;9.57;6.57;;;15.30;99.90;;;;;;4979492;28;20357;-88
2022/09/09 06:45:58;;;;;;;8.77;6.45;;;15.60;99.90;;;;;;5027907;28;20045;-89
2022/09/09 06:48:28;;;;;;;9.07;6.13;;;15.30;99.90;;;;;;5027460;28;20045;-88
2022/09/09 06:51:06;;;;;;;7.43;5.78;;;15.40;99.90;;;;;;5012506;28;20124;-89
2022/09/09 06:53:35;;;;;;;9.27;6.45;;;15.40;99.90;;;;;;5027951;28;20049;-89
2022/09/09 06:56:16;;;;;;;11.57;6.30;;;16.00;99.90;;;;;;5028460;28;20496;-88
2022/09/09 06:58:46;;;;;;;7.72;5.57;;;15.40;99.90;;;;;;5028614;28;20044;-87
2022/09/09 07:01:13;;;;;;;7.80;6.35;;;15.70;99.90;;;;;;5013772;28;20055;-89
2022/09/09 07:03:40;;;;;;;11.00;6.00;;;15.80;99.90;;;;;;5029877;28;20045;-89
2022/09/09 07:06:07;;;;;;;9.60;5.72;;;16.60;99.90;;;;;;5029155;28;20546;-88
2022/09/09 07:08:33;;;;;;;11.20;6.30;;;15.60;99.90;;;;;;5028741;28;20049;-89
2022/09/09 07:11:07;;;;;;;10.13;6.03;;;15.60;99.90;;;;;;5012519;28;20588;-90
2022/09/09 07:13:33;;;;;;;7.35;5.75;;;15.80;99.90;;;;;;5011817;28;20041;-89
2022/09/09 07:16:11;;;;;;;6.32;5.55;;;15.70;99.90;;;;;;5011969;28;20049;-88
2022/09/09 07:18:37;;;;;;;7.43;5.63;;;15.70;99.90;;;;;;5027720;28;20053;-89
2022/09/09 07:21:03;;;;;;;6.38;5.15;;;15.80;99.90;;;;;;5011892;28;20098;-89
2022/09/09 07:23:30;;;;;;;8.10;4.93;;;15.90;99.90;;;;;;5030868;28;20060;-90
2022/09/09 07:25:57;;;;;;;8.25;5.47;;;15.90;99.90;;;;;;5033163;28;20429;-90
2022/09/09 07:28:24;;;;;;;9.75;5.60;;;15.90;99.90;;;;;;5032448;28;20055;-89
2022/09/09 07:30:57;;;;;;;6.68;4.85;;;16.00;99.90;;;;;;5015341;28;20542;-90
2022/09/09 07:33:24;;;;;;;8.65;5.35;;;16.00;99.90;;;;;;5032140;28;20055;-89
2022/09/09 07:35:50;;;;;;;5.97;4.95;;;16.10;99.90;;;;;;5031891;28;20052;-90
2022/09/09 07:38:16;;;;;;;7.32;5.50;;;16.10;99.90;;;;;;4999847;28;20053;-89
2022/09/09 07:40:43;;;;;;;7.95;4.70;;;16.10;99.90;;;;;;4982368;28;20145;-89
2022/09/09 07:43:09;;;;;;;5.97;4.75;;;16.20;99.90;;;;;;5015342;28;20041;-89
2022/09/09 07:45:35;;;;;;;10.05;4.60;;;16.20;99.90;;;;;;4982227;28;20094;-89
2022/09/09 07:48:01;;;;;;;9.82;5.60;;;16.20;99.90;;;;;;5030916;28;20098;-89
2022/09/09 07:50:27;;;;;;;6.25;4.60;;;16.30;99.90;;;;;;5014796;28;20559;-89
2022/09/09 07:52:53;;;;;;;7.13;4.88;;;16.80;99.90;;;;;;5014139;28;20179;-89
2022/09/09 07:55:20;;;;;;;5.85;4.47;;;16.40;99.90;;;;;;4998876;28;20135;-90
2022/09/09 07:57:46;;;;;;;7.00;4.70;;;16.40;99.90;;;;;;5031307;28;20040;-90
2022/09/09 08:00:14;;;;;;;9.93;4.68;;;16.50;99.90;;;;;;5015330;28;20388;-91
2022/09/09 08:02:40;;;;;;;7.07;4.70;;;16.50;99.90;;;;;;5015020;28;20037;-88
2022/09/09 08:05:06;;;;;;;7.13;4.45;;;16.50;99.90;;;;;;5014377;28;20047;-89
2022/09/09 08:07:32;;;;;;;7.55;4.20;;;16.60;99.90;;;;;;5015083;28;20045;-90
2022/09/09 08:09:57;;;;;;;6.40;4.60;;;16.60;99.90;;;;;;5013939;28;20507;-90
2022/09/09 08:12:23;;;;;;;6.38;4.45;;;16.70;99.90;;;;;;4999040;28;20052;-89
2022/09/09 08:14:49;;;;;;;9.93;4.55;;;16.20;99.90;;;;;;5013997;28;20473;-90
2022/09/09 08:17:15;;;;;;;5.10;3.92;;;17.30;99.90;;;;;;4982163;28;20149;-90
2022/09/09 08:19:40;;;;;;;9.23;3.78;;;16.90;99.90;;;;;;5014405;28;20132;-89
2022/09/09 08:22:07;;;;;;;4.50;3.65;;;16.90;99.90;;;;;;4981008;28;20041;-90
2022/09/09 08:24:33;;;;;;;6.45;3.80;;;17.00;99.90;;;;;;5014753;28;20037;-90
2022/09/09 08:26:59;;;;;;;9.65;3.83;;;17.10;99.90;;;;;;5014018;28;20131;-90
2022/09/09 08:29:25;;;;;;;8.27;3.88;;;17.10;99.90;;;;;;4998954;28;20136;-90
2022/09/09 08:31:54;;;;;;;6.32;3.85;;;17.20;99.90;;;;;;5015268;28;20037;-92
2022/09/09 08:34:20;;;;;;;8.80;4.10;;;17.30;99.90;;;;;;5032503;28;20090;-90
2022/09/09 08:36:48;;;;;;;8.77;3.83;;;17.40;99.90;;;;;;5020959;28;20120;-89
2022/09/09 08:39:16;;;;;;;8.20;3.83;;;17.40;99.90;;;;;;5036521;28;20124;-90
2022/09/09 08:42:11;;;;;;;6.10;4.13;;;17.50;99.90;;;;;;5020248;28;20119;-90
2022/09/09 08:45:11;;;;;;;6.00;3.60;;;17.60;99.90;;;;;;5035452;28;20041;-89
2022/09/09 08:48:05;;;;;;;5.15;3.25;;;17.80;99.90;;;;;;5017804;28;20076;-89
2022/09/09 08:50:38;;;;;;;6.57;3.20;;;17.90;99.90;;;;;;5017131;28;20044;-89
2022/09/09 08:53:24;;;;;;;6.40;3.72;;;17.90;99.90;;;;;;5033143;28;20047;-89
2022/09/09 08:55:58;;;;;;;4.78;2.83;;;18.00;99.90;;;;;;5015125;28;20065;-89
2022/09/09 08:58:32;;;;;;;5.40;3.22;;;18.10;99.90;;;;;;5030370;28;20106;-89
2022/09/09 09:01:18;;;;;;;5.13;2.58;;;18.20;99.90;;;;;;5029547;28;20400;-89
2022/09/09 09:04:22;;;;;;;4.70;2.90;;;18.30;99.90;;;;;;5030085;28;20044;-89
2022/09/09 09:07:08;;;;;;;7.85;2.67;;;18.40;99.90;;;;;;5029937;28;20056;-90
2022/09/09 09:09:50;;;;;;;5.57;2.40;;;18.50;99.90;;;;;;5012657;28;20508;-89
2022/09/09 09:12:20;;;;;;;10.13;2.77;;;18.40;99.90;;;;;;5030020;28;20053;-88
2022/09/09 09:14:47;;;;;;;4.53;2.90;;;18.50;99.90;;;;;;5029215;28;20043;-88
2022/09/09 09:17:19;;;;;;;7.18;2.85;;;18.50;99.90;;;;;;5013261;28;20469;-88
2022/09/09 09:19:46;;;;;;;4.07;2.37;;;18.40;99.90;;;;;;5029703;28;20037;-88
2022/09/09 09:22:21;;;;;;;7.25;2.65;;;18.30;99.90;;;;;;5013048;28;20467;-89
2022/09/09 09:25:42;;;;;;;7.97;3.05;;;18.30;99.90;;;;;;5013550;28;20037;-90
2022/09/09 09:28:17;;;;;;;9.45;2.97;;;18.30;99.90;;;;;;4953150;28;20053;-88
2022/09/09 09:31:03;;;;;;;6.10;2.90;;;18.20;99.90;;;;;;5004087;28;20520;-90
2022/09/09 09:33:56;;;;;;;6.82;3.35;;;18.20;99.90;;;;;;5029473;28;20049;-91
2022/09/09 09:36:41;;;;;;;4.53;2.50;;;18.30;99.90;;;;;;5027188;28;20136;-90
2022/09/09 09:39:07;;;;;;;5.32;2.40;;;18.40;99.90;;;;;;5029078;28;20049;-89
2022/09/09 09:41:37;;;;;;;7.30;2.67;;;18.40;99.90;;;;;;5029608;28;20530;-90
2022/09/09 09:44:04;;;;;;;7.97;2.72;;;18.50;99.90;;;;;;5011954;28;20069;-90
2022/09/09 09:46:31;;;;;;;6.18;2.70;;;18.50;99.90;;;;;;5029653;28;20052;-90
2022/09/09 09:49:05;;;;;;;6.07;2.53;;;18.60;99.90;;;;;;5012733;28;20171;-90
2022/09/09 09:51:32;;;;;;;5.80;2.63;;;18.60;99.90;;;;;;5029242;28;20051;-90
2022/09/09 09:54:13;;;;;;;6.15;2.22;;;18.70;99.90;;;;;;4996298;28;20049;-91
2022/09/09 09:56:40;;;;;;;5.20;2.25;;;18.80;99.90;;;;;;5012102;28;20474;-90
2022/09/09 09:59:21;;;;;;;4.50;1.90;;;18.90;99.90;;;;;;5028954;28;20051;-90
2022/09/09 10:01:47;;;;;;;4.18;2.10;;;19.00;99.90;;;;;;5014656;28;20416;-90
2022/09/09 10:04:16;;;;;;;6.72;2.15;;;19.20;99.90;;;;;;5014888;28;20029;-89
2022/09/09 10:06:41;;;;;;;5.60;2.15;;;19.20;99.90;;;;;;5029710;28;20504;-88
2022/09/09 10:09:28;;;;;;;9.23;2.75;;;19.30;99.90;;;;;;5012596;28;20052;-89
2022/09/09 10:12:19;;;;;;;5.70;2.03;;;19.30;99.90;;;;;;5030120;28;20049;-89
2022/09/09 10:15:06;;;;;;;7.00;2.08;;;19.20;99.90;;;;;;5014669;28;20049;-90
2022/09/09 10:17:38;;;;;;;10.95;2.20;;;19.30;99.90;;;;;;5029986;28;20059;-91
2022/09/09 10:20:09;;;;;;;8.75;1.40;;;19.30;99.90;;;;;;5015292;28;20556;-90
2022/09/09 10:22:37;;;;;;;13.80;2.63;;;19.30;99.90;;;;;;5031587;28;20045;-90
2022/09/09 10:25:21;;;;;;;10.75;1.73;;;20.50;99.90;;;;;;5015005;28;20132;-89
2022/09/09 10:28:00;;;;;;;6.82;1.70;;;19.50;99.90;;;;;;5014333;28;20092;-88
2022/09/09 10:30:49;;;;;;;7.88;2.13;;;19.50;99.90;;;;;;5030609;28;20048;-89
2022/09/09 10:33:45;;;;;;;5.28;1.50;;;19.40;99.90;;;;;;5013746;28;20119;-89
2022/09/09 10:36:18;;;;;;;6.47;1.80;;;19.40;99.90;;;;;;5014379;28;20475;-88
2022/09/09 10:38:53;;;;;;;6.60;1.65;;;19.40;99.90;;;;;;5013537;28;20041;-88
2022/09/09 10:41:21;;;;;;;7.35;1.98;;;19.30;99.90;;;;;;5030336;28;20512;-89
2022/09/09 10:44:17;;;;;;;8.75;1.92;;;19.30;99.90;;;;;;5012929;28;20553;-88
2022/09/09 10:47:01;;;;;;;7.30;1.83;;;19.20;99.90;;;;;;5031083;28;20392;-89
2022/09/09 10:49:52;;;;;;;7.30;2.00;;;19.20;99.90;;;;;;5048624;28;20602;-89
2022/09/09 10:52:30;;;;;;;5.57;1.50;;;19.00;99.90;;;;;;5029651;28;20048;-89
2022/09/09 10:55:18;;;;;;;8.73;1.70;;;19.30;99.90;;;;;;5015463;28;20041;-90
2022/09/09 10:57:47;;;;;;;7.40;1.33;;;19.40;99.90;;;;;;5033372;28;20472;-90
2022/09/09 11:00:22;;;;;;;6.65;1.67;;;19.30;99.90;;;;;;5035131;28;20357;-89
2022/09/09 11:02:56;;;;;;;5.90;1.23;;;19.30;99.90;;;;;;5017198;28;20515;-89
2022/09/09 11:05:28;;;;;;;7.97;1.48;;;19.30;99.90;;;;;;5033838;28;20041;-87
2022/09/09 11:08:01;;;;;;;8.52;1.33;;;19.30;99.90;;;;;;5036034;28;20037;-92
2022/09/09 11:10:48;;;;;;;8.40;1.58;;;19.10;99.90;;;;;;5033569;28;20087;-88
2022/09/09 11:13:21;;;;;;;6.80;1.55;;;19.70;99.90;;;;;;5016579;28;20190;-87
2022/09/09 11:15:56;;;;;;;9.65;1.23;;;19.90;99.90;;;;;;5017254;28;20108;-87
2022/09/09 11:18:23;;;;;;;6.00;1.58;;;20.00;99.90;;;;;;5034525;28;20057;-88
2022/09/09 11:20:52;;;;;;;5.18;1.10;;;20.10;99.90;;;;;;5020542;28;20044;-88
2022/09/09 11:23:27;;;;;;;6.82;1.00;;;20.30;99.90;;;;;;5033384;28;20045;-88
2022/09/09 11:25:58;;;;;;;11.77;1.65;;;20.40;99.90;;;;;;5017585;28;20053;-92
2022/09/09 11:29:02;;;;;;;5.60;0.75;;;20.50;99.90;;;;;;5033505;28;20457;-86
2022/09/09 11:32:03;;;;;;;7.63;0.93;;;20.60;99.90;;;;;;5050114;28;20052;-87
2022/09/09 11:34:56;;;;;;;3.58;0.80;;;20.80;99.90;;;;;;5030048;28;20057;-86
2022/09/09 11:37:59;;;;;;;4.40;0.85;;;21.00;99.90;;;;;;5031633;28;20049;-87
2022/09/09 11:40:26;;;;;;;;;;;21.20;99.90;;;;;;5031462;28;20044;-86
2022/09/09 11:43:30;;;;;;;10.45;2.78;;;21.30;99.90;;;;;;5032123;28;19962;-87
2022/09/09 11:46:00;;;;;;;6.28;1.10;;;21.50;99.90;;;;;;4984900;28;20045;-87
2022/09/09 11:48:38;;;;;;;3.83;1.20;;;21.50;99.90;;;;;;5031116;28;20036;-86
2022/09/09 11:51:07;;;;;;;3.88;0.77;;;21.50;99.90;;;;;;5031764;28;20106;-84
2022/09/09 11:53:35;;;;;;;5.15;0.85;;;21.60;99.90;;;;;;5030593;28;20136;-86
2022/09/09 11:56:10;;;;;;;4.82;0.90;;;21.60;99.90;;;;;;5049314;28;20045;-88
2022/09/09 11:58:54;;;;;;;2.55;1.17;;;21.50;99.90;;;;;;5031394;28;20080;-87
2022/09/09 12:01:36;;;;;;;5.28;0.80;;;21.30;99.90;;;;;;5031082;28;20124;-87
2022/09/09 12:04:08;;;;;;;6.57;0.85;;;21.10;99.90;;;;;;5050835;28;20052;-89
2022/09/09 12:07:02;;;;;;;8.38;1.20;;;21.00;99.90;;;;;;5016151;28;20076;-86
2022/09/09 12:09:52;;;;;;;6.88;0.98;;;21.00;99.90;;;;;;5030014;28;20038;-86
2022/09/09 12:12:22;;;;;;;4.95;0.98;;;21.10;99.90;;;;;;5031117;28;20045;-90
2022/09/09 12:15:06;;;;;;;3.22;0.70;;;21.00;99.90;;;;;;5030011;28;20048;-85
2022/09/09 12:17:53;;;;;;;6.75;1.17;;;20.90;99.90;;;;;;5129631;27;20582;-86
2022/09/09 12:20:23;;;;;;;10.90;1.38;;;20.80;99.90;;;;;;5089571;28;20043;-86
2022/09/09 12:23:08;;;;;;;1.52;0.50;;;20.80;99.90;;;;;;5072569;28;20040;-87
2022/09/09 12:25:52;;;;;;;5.88;1.25;;;20.80;99.90;;;;;;5090242;28;20052;-85
2022/09/09 12:28:32;;;;;;;4.95;0.80;;;20.90;99.90;;;;;;5074887;28;20051;-88
2022/09/09 12:31:08;;;;;;;4.97;1.00;;;20.90;99.90;;;;;;5073879;28;20056;-86
2022/09/09 12:33:45;;;;;;;5.03;1.00;;;21.00;99.90;;;;;;5090744;28;20138;-86
2022/09/09 12:36:15;;;;;;;4.85;1.35;;;21.00;99.90;;;;;;5074256;28;20329;-87
2022/09/09 12:38:42;;;;;;;2.92;0.70;;;21.10;99.90;;;;;;5089450;28;20046;-86
2022/09/09 12:41:28;;;;;;;8.18;1.33;;;21.10;99.90;;;;;;5073291;28;20040;-87
2022/09/09 12:44:09;;;;;;;12.50;1.27;;;21.00;99.90;;;;;;5056095;28;20056;-87
2022/09/09 12:46:42;;;;;;;4.15;1.05;;;20.90;99.90;;;;;;5073448;28;20036;-87
2022/09/09 12:49:26;;;;;;;;;;;20.80;99.90;;;;;;5073461;28;20052;-88
2022/09/09 12:51:52;;;;;;;7.20;0.90;;;20.70;99.90;;;;;;5071335;28;19927;-88
2022/09/09 12:54:20;;;;;;;5.50;0.90;;;20.60;99.90;;;;;;5088462;28;20048;-88
2022/09/09 12:56:47;;;;;;;7.28;0.82;;;20.70;99.90;;;;;;5088209;28;20040;-87
2022/09/09 12:59:36;;;;;;;4.75;0.93;;;20.80;99.90;;;;;;5080542;28;20048;-87
2022/09/09 13:02:02;;;;;;;9.07;1.40;;;20.90;99.90;;;;;;5051396;28;20044;-87
2022/09/09 13:04:27;;;;;;;6.35;1.00;;;20.90;99.90;;;;;;5034458;28;20072;-88
2022/09/09 13:07:06;;;;;;;3.20;0.77;;;21.00;99.90;;;;;;5054757;28;20051;-93
2022/09/09 13:09:36;;;;;;;8.80;0.90;;;21.10;99.90;;;;;;5072206;28;20043;-93
2022/09/09 13:12:05;;;;;;;5.18;1.05;;;21.20;99.90;;;;;;5053771;28;20040;-94
2022/09/09 13:14:37;;;;;;;3.75;0.75;;;21.30;99.90;;;;;;5052208;28;20430;-87
2022/09/09 13:17:04;;;;;;;5.30;1.15;;;21.40;99.90;;;;;;5067935;28;20127;-90
2022/09/09 13:19:35;;;;;;;6.57;1.10;;;21.60;99.90;;;;;;5034769;28;20044;-90